sensor_id;sensor_type;location;lat;lon;timestamp;P1;durP1;ratioP1;P2;durP2;ratioP2
18194;SDS011;9223;50.988;3.162;2023-03-01T00:01:27;9.15;;;5.90;;
18194;SDS011;9223;50.988;3.162;2023-03-01T00:07:31;8.93;;;6.23;;
18194;SDS011;9223;50.988;3.162;2023-03-01T00:13:34;9.80;;;6.78;;
18194;SDS011;9223;50.988;3.162;2023-03-01T00:19:40;8.40;;;6.35;;
18194;SDS011;9223;50.988;3.162;2023-03-01T00:25:44;9.87;;;6.47;;
18194;SDS011;9223;50.988;3.162;2023-03-01T00:31:48;7.75;;;6.15;;
18194;SDS011;9223;50.988;3.162;2023-03-01T00:37:52;10.10;;;6.38;;
18194;SDS011;9223;50.988;3.162;2023-03-01T00:43:59;8.67;;;6.77;;
18194;SDS011;9223;50.988;3.162;2023-03-01T00:50:02;9.53;;;6.80;;
18194;SDS011;9223;50.988;3.162;2023-03-01T00:56:08;9.80;;;6.90;;
18194;SDS011;9223;50.988;3.162;2023-03-01T01:02:11;11.63;;;6.90;;
18194;SDS011;9223;50.988;3.162;2023-03-01T01:08:15;8.13;;;6.67;;
18194;SDS011;9223;50.988;3.162;2023-03-01T01:14:20;8.75;;;6.45;;
18194;SDS011;9223;50.988;3.162;2023-03-01T01:20:23;9.43;;;7.03;;
18194;SDS011;9223;50.988;3.162;2023-03-01T01:26:28;9.20;;;7.03;;
18194;SDS011;9223;50.988;3.162;2023-03-01T01:32:34;9.10;;;7.00;;
18194;SDS011;9223;50.988;3.162;2023-03-01T01:38:37;10.60;;;7.90;;
18194;SDS011;9223;50.988;3.162;2023-03-01T01:44:42;9.20;;;8.03;;
18194;SDS011;9223;50.988;3.162;2023-03-01T01:50:47;10.73;;;8.63;;
18194;SDS011;9223;50.988;3.162;2023-03-01T01:56:52;11.10;;;9.07;;
18194;SDS011;9223;50.988;3.162;2023-03-01T02:02:59;12.93;;;9.33;;
18194;SDS011;9223;50.988;3.162;2023-03-01T02:09:07;11.23;;;9.63;;
18194;SDS011;9223;50.988;3.162;2023-03-01T02:15:12;14.57;;;9.88;;
18194;SDS011;9223;50.988;3.162;2023-03-01T02:21:19;13.07;;;10.63;;
18194;SDS011;9223;50.988;3.162;2023-03-01T02:27:28;13.97;;;10.73;;
18194;SDS011;9223;50.988;3.162;2023-03-01T02:33:39;12.57;;;10.93;;
18194;SDS011;9223;50.988;3.162;2023-03-01T02:39:44;15.32;;;11.20;;
18194;SDS011;9223;50.988;3.162;2023-03-01T02:45:49;14.97;;;10.80;;
18194;SDS011;9223;50.988;3.162;2023-03-01T02:52:00;13.60;;;11.07;;
18194;SDS011;9223;50.988;3.162;2023-03-01T02:58:06;14.38;;;11.48;;
18194;SDS011;9223;50.988;3.162;2023-03-01T03:04:11;14.80;;;12.20;;
18194;SDS011;9223;50.988;3.162;2023-03-01T03:10:21;14.60;;;11.87;;
18194;SDS011;9223;50.988;3.162;2023-03-01T03:16:24;14.90;;;11.30;;
18194;SDS011;9223;50.988;3.162;2023-03-01T03:22:28;13.20;;;11.40;;
18194;SDS011;9223;50.988;3.162;2023-03-01T03:28:33;14.73;;;11.43;;
18194;SDS011;9223;50.988;3.162;2023-03-01T03:34:41;16.63;;;11.87;;
18194;SDS011;9223;50.988;3.162;2023-03-01T03:40:45;15.23;;;11.77;;
18194;SDS011;9223;50.988;3.162;2023-03-01T03:46:50;14.87;;;11.90;;
18194;SDS011;9223;50.988;3.162;2023-03-01T03:52:53;18.23;;;11.57;;
18194;SDS011;9223;50.988;3.162;2023-03-01T03:58:57;13.80;;;10.97;;
18194;SDS011;9223;50.988;3.162;2023-03-01T04:05:02;14.23;;;11.67;;
18194;SDS011;9223;50.988;3.162;2023-03-01T04:11:06;14.43;;;11.83;;
18194;SDS011;9223;50.988;3.162;2023-03-01T04:17:23;15.23;;;12.43;;
18194;SDS011;9223;50.988;3.162;2023-03-01T04:23:28;17.23;;;12.60;;
18194;SDS011;9223;50.988;3.162;2023-03-01T04:29:32;15.83;;;11.50;;
18194;SDS011;9223;50.988;3.162;2023-03-01T04:35:35;15.63;;;12.13;;
18194;SDS011;9223;50.988;3.162;2023-03-01T04:41:41;19.23;;;11.90;;
18194;SDS011;9223;50.988;3.162;2023-03-01T04:47:45;16.33;;;11.77;;
18194;SDS011;9223;50.988;3.162;2023-03-01T04:53:49;14.33;;;11.83;;
18194;SDS011;9223;50.988;3.162;2023-03-01T04:59:55;16.57;;;12.27;;
18194;SDS011;9223;50.988;3.162;2023-03-01T05:05:59;15.57;;;11.87;;
18194;SDS011;9223;50.988;3.162;2023-03-01T05:12:02;16.03;;;12.40;;
18194;SDS011;9223;50.988;3.162;2023-03-01T05:18:07;15.53;;;12.07;;
18194;SDS011;9223;50.988;3.162;2023-03-01T05:24:12;18.57;;;13.30;;
18194;SDS011;9223;50.988;3.162;2023-03-01T05:30:16;17.03;;;12.40;;
18194;SDS011;9223;50.988;3.162;2023-03-01T05:36:21;14.87;;;11.47;;
18194;SDS011;9223;50.988;3.162;2023-03-01T05:42:25;20.13;;;12.97;;
18194;SDS011;9223;50.988;3.162;2023-03-01T05:48:28;15.73;;;11.60;;
18194;SDS011;9223;50.988;3.162;2023-03-01T05:54:33;20.23;;;12.57;;
18194;SDS011;9223;50.988;3.162;2023-03-01T06:00:37;18.37;;;12.50;;
18194;SDS011;9223;50.988;3.162;2023-03-01T06:06:40;15.00;;;11.70;;
18194;SDS011;9223;50.988;3.162;2023-03-01T06:12:45;17.90;;;11.87;;
18194;SDS011;9223;50.988;3.162;2023-03-01T06:18:49;16.73;;;11.77;;
18194;SDS011;9223;50.988;3.162;2023-03-01T06:24:52;14.83;;;10.87;;
18194;SDS011;9223;50.988;3.162;2023-03-01T06:30:57;16.47;;;11.13;;
18194;SDS011;9223;50.988;3.162;2023-03-01T06:37:01;16.57;;;11.47;;
18194;SDS011;9223;50.988;3.162;2023-03-01T06:43:06;19.73;;;11.10;;
18194;SDS011;9223;50.988;3.162;2023-03-01T06:49:11;17.67;;;12.63;;
18194;SDS011;9223;50.988;3.162;2023-03-01T06:55:15;15.40;;;11.50;;
18194;SDS011;9223;50.988;3.162;2023-03-01T07:01:18;19.60;;;12.07;;
18194;SDS011;9223;50.988;3.162;2023-03-01T07:07:23;18.25;;;15.52;;
18194;SDS011;9223;50.988;3.162;2023-03-01T07:13:27;16.80;;;12.50;;
18194;SDS011;9223;50.988;3.162;2023-03-01T07:19:31;14.73;;;11.40;;
18194;SDS011;9223;50.988;3.162;2023-03-01T07:25:35;17.80;;;12.88;;
18194;SDS011;9223;50.988;3.162;2023-03-01T07:31:39;16.77;;;12.50;;
18194;SDS011;9223;50.988;3.162;2023-03-01T07:37:42;20.05;;;14.00;;
18194;SDS011;9223;50.988;3.162;2023-03-01T07:43:47;18.65;;;13.75;;
18194;SDS011;9223;50.988;3.162;2023-03-01T07:49:51;19.08;;;12.98;;
18194;SDS011;9223;50.988;3.162;2023-03-01T07:56:01;18.17;;;12.82;;
18194;SDS011;9223;50.988;3.162;2023-03-01T08:02:09;16.30;;;11.75;;
18194;SDS011;9223;50.988;3.162;2023-03-01T08:08:13;16.87;;;13.40;;
18194;SDS011;9223;50.988;3.162;2023-03-01T08:14:18;14.98;;;10.30;;
18194;SDS011;9223;50.988;3.162;2023-03-01T08:20:23;15.43;;;11.30;;
18194;SDS011;9223;50.988;3.162;2023-03-01T08:26:27;13.10;;;9.35;;
18194;SDS011;9223;50.988;3.162;2023-03-01T08:32:34;11.30;;;10.05;;
18194;SDS011;9223;50.988;3.162;2023-03-01T08:38:39;11.88;;;9.52;;
18194;SDS011;9223;50.988;3.162;2023-03-01T08:44:43;9.27;;;7.32;;
18194;SDS011;9223;50.988;3.162;2023-03-01T08:50:47;11.48;;;7.95;;
18194;SDS011;9223;50.988;3.162;2023-03-01T08:56:52;12.45;;;8.30;;
18194;SDS011;9223;50.988;3.162;2023-03-01T09:02:55;10.88;;;8.07;;
18194;SDS011;9223;50.988;3.162;2023-03-01T09:08:59;10.88;;;8.20;;
18194;SDS011;9223;50.988;3.162;2023-03-01T09:15:05;10.15;;;7.20;;
18194;SDS011;9223;50.988;3.162;2023-03-01T09:21:09;9.65;;;6.88;;
18194;SDS011;9223;50.988;3.162;2023-03-01T09:27:13;7.13;;;5.97;;
18194;SDS011;9223;50.988;3.162;2023-03-01T09:33:21;8.95;;;6.50;;
18194;SDS011;9223;50.988;3.162;2023-03-01T09:39:24;8.73;;;6.22;;
18194;SDS011;9223;50.988;3.162;2023-03-01T09:45:29;7.20;;;5.10;;
18194;SDS011;9223;50.988;3.162;2023-03-01T09:51:37;8.60;;;5.43;;
18194;SDS011;9223;50.988;3.162;2023-03-01T09:57:43;6.78;;;4.80;;
18194;SDS011;9223;50.988;3.162;2023-03-01T10:03:54;5.50;;;4.30;;
18194;SDS011;9223;50.988;3.162;2023-03-01T10:10:02;6.57;;;4.82;;
18194;SDS011;9223;50.988;3.162;2023-03-01T10:16:10;6.30;;;4.45;;
18194;SDS011;9223;50.988;3.162;2023-03-01T10:22:16;6.78;;;5.20;;
18194;SDS011;9223;50.988;3.162;2023-03-01T10:28:26;6.43;;;4.00;;
18194;SDS011;9223;50.988;3.162;2023-03-01T10:34:33;4.55;;;3.90;;
18194;SDS011;9223;50.988;3.162;2023-03-01T10:40:49;5.70;;;4.88;;
18194;SDS011;9223;50.988;3.162;2023-03-01T10:46:58;4.72;;;3.80;;
18194;SDS011;9223;50.988;3.162;2023-03-01T10:53:03;6.10;;;4.32;;
18194;SDS011;9223;50.988;3.162;2023-03-01T10:59:09;6.38;;;4.22;;
18194;SDS011;9223;50.988;3.162;2023-03-01T11:05:24;5.70;;;4.83;;
18194;SDS011;9223;50.988;3.162;2023-03-01T11:11:31;6.60;;;4.40;;
18194;SDS011;9223;50.988;3.162;2023-03-01T11:17:34;5.05;;;4.03;;
18194;SDS011;9223;50.988;3.162;2023-03-01T11:23:56;4.88;;;4.00;;
18194;SDS011;9223;50.988;3.162;2023-03-01T11:30:02;6.38;;;4.10;;
18194;SDS011;9223;50.988;3.162;2023-03-01T11:36:08;5.65;;;4.30;;
18194;SDS011;9223;50.988;3.162;2023-03-01T11:42:19;5.90;;;3.88;;
18194;SDS011;9223;50.988;3.162;2023-03-01T11:54:53;6.55;;;4.85;;
18194;SDS011;9223;50.988;3.162;2023-03-01T12:01:02;6.60;;;4.10;;
18194;SDS011;9223;50.988;3.162;2023-03-01T12:07:10;6.15;;;4.63;;
18194;SDS011;9223;50.988;3.162;2023-03-01T12:13:23;6.65;;;4.55;;
18194;SDS011;9223;50.988;3.162;2023-03-01T12:19:36;6.05;;;4.13;;
18194;SDS011;9223;50.988;3.162;2023-03-01T12:25:44;5.93;;;4.03;;
18194;SDS011;9223;50.988;3.162;2023-03-01T12:31:52;8.40;;;5.07;;
18194;SDS011;9223;50.988;3.162;2023-03-01T12:38:04;6.03;;;4.60;;
18194;SDS011;9223;50.988;3.162;2023-03-01T12:44:22;6.40;;;5.25;;
18194;SDS011;9223;50.988;3.162;2023-03-01T12:50:28;6.43;;;5.25;;
18194;SDS011;9223;50.988;3.162;2023-03-01T12:56:36;7.22;;;5.00;;
18194;SDS011;9223;50.988;3.162;2023-03-01T13:02:41;8.23;;;5.00;;
18194;SDS011;9223;50.988;3.162;2023-03-01T13:08:49;6.88;;;4.55;;
18194;SDS011;9223;50.988;3.162;2023-03-01T13:14:58;6.72;;;5.15;;
18194;SDS011;9223;50.988;3.162;2023-03-01T13:21:02;5.72;;;4.43;;
18194;SDS011;9223;50.988;3.162;2023-03-01T13:27:22;6.38;;;5.28;;
18194;SDS011;9223;50.988;3.162;2023-03-01T13:33:39;4.88;;;4.20;;
18194;SDS011;9223;50.988;3.162;2023-03-01T13:39:43;5.28;;;4.47;;
18194;SDS011;9223;50.988;3.162;2023-03-01T13:45:46;6.22;;;4.78;;
18194;SDS011;9223;50.988;3.162;2023-03-01T13:51:51;5.60;;;4.60;;
18194;SDS011;9223;50.988;3.162;2023-03-01T13:57:56;5.72;;;4.40;;
18194;SDS011;9223;50.988;3.162;2023-03-01T14:04:00;6.88;;;4.20;;
18194;SDS011;9223;50.988;3.162;2023-03-01T14:10:06;6.28;;;4.97;;
18194;SDS011;9223;50.988;3.162;2023-03-01T14:16:17;7.45;;;4.97;;
18194;SDS011;9223;50.988;3.162;2023-03-01T14:22:26;7.75;;;5.20;;
18194;SDS011;9223;50.988;3.162;2023-03-01T14:28:32;8.13;;;4.55;;
18194;SDS011;9223;50.988;3.162;2023-03-01T14:34:42;5.87;;;5.27;;
18194;SDS011;9223;50.988;3.162;2023-03-01T14:40:46;7.40;;;5.05;;
18194;SDS011;9223;50.988;3.162;2023-03-01T14:46:55;6.82;;;4.90;;
18194;SDS011;9223;50.988;3.162;2023-03-01T14:52:59;5.60;;;5.05;;
18194;SDS011;9223;50.988;3.162;2023-03-01T14:59:04;7.70;;;6.05;;
18194;SDS011;9223;50.988;3.162;2023-03-01T15:05:09;5.88;;;4.90;;
18194;SDS011;9223;50.988;3.162;2023-03-01T15:11:17;6.80;;;5.85;;
18194;SDS011;9223;50.988;3.162;2023-03-01T15:17:26;6.03;;;4.78;;
18194;SDS011;9223;50.988;3.162;2023-03-01T15:23:32;6.40;;;5.50;;
18194;SDS011;9223;50.988;3.162;2023-03-01T15:29:37;7.60;;;5.50;;
18194;SDS011;9223;50.988;3.162;2023-03-01T15:35:42;6.77;;;5.30;;
18194;SDS011;9223;50.988;3.162;2023-03-01T15:41:48;5.40;;;4.57;;
18194;SDS011;9223;50.988;3.162;2023-03-01T15:47:52;8.15;;;5.60;;
18194;SDS011;9223;50.988;3.162;2023-03-01T15:54:00;8.63;;;4.80;;
18194;SDS011;9223;50.988;3.162;2023-03-01T16:00:08;5.72;;;5.05;;
18194;SDS011;9223;50.988;3.162;2023-03-01T16:06:14;5.80;;;5.05;;
18194;SDS011;9223;50.988;3.162;2023-03-01T16:12:18;8.60;;;4.80;;
18194;SDS011;9223;50.988;3.162;2023-03-01T16:18:24;8.73;;;5.97;;
18194;SDS011;9223;50.988;3.162;2023-03-01T16:24:27;7.68;;;5.88;;
18194;SDS011;9223;50.988;3.162;2023-03-01T16:30:31;7.07;;;5.55;;
18194;SDS011;9223;50.988;3.162;2023-03-01T16:36:38;5.97;;;4.75;;
18194;SDS011;9223;50.988;3.162;2023-03-01T16:42:42;6.50;;;5.28;;
18194;SDS011;9223;50.988;3.162;2023-03-01T16:48:46;6.90;;;5.65;;
18194;SDS011;9223;50.988;3.162;2023-03-01T16:54:51;10.15;;;5.97;;
18194;SDS011;9223;50.988;3.162;2023-03-01T17:00:54;7.15;;;5.30;;
18194;SDS011;9223;50.988;3.162;2023-03-01T17:06:58;8.65;;;5.43;;
18194;SDS011;9223;50.988;3.162;2023-03-01T17:13:03;7.90;;;5.13;;
18194;SDS011;9223;50.988;3.162;2023-03-01T17:19:07;6.90;;;5.68;;
18194;SDS011;9223;50.988;3.162;2023-03-01T17:25:11;12.93;;;7.30;;
18194;SDS011;9223;50.988;3.162;2023-03-01T17:31:18;8.98;;;6.90;;
18194;SDS011;9223;50.988;3.162;2023-03-01T17:37:22;9.45;;;5.75;;
18194;SDS011;9223;50.988;3.162;2023-03-01T17:43:26;10.75;;;6.10;;
18194;SDS011;9223;50.988;3.162;2023-03-01T17:49:31;8.73;;;7.50;;
18194;SDS011;9223;50.988;3.162;2023-03-01T17:55:34;13.35;;;9.10;;
18194;SDS011;9223;50.988;3.162;2023-03-01T18:01:39;11.48;;;8.35;;
18194;SDS011;9223;50.988;3.162;2023-03-01T18:07:45;15.55;;;7.70;;
18194;SDS011;9223;50.988;3.162;2023-03-01T18:13:49;12.18;;;8.70;;
18194;SDS011;9223;50.988;3.162;2023-03-01T18:19:52;11.27;;;8.40;;
18194;SDS011;9223;50.988;3.162;2023-03-01T18:25:58;9.55;;;7.57;;
18194;SDS011;9223;50.988;3.162;2023-03-01T18:32:03;9.02;;;7.55;;
18194;SDS011;9223;50.988;3.162;2023-03-01T18:38:07;11.38;;;7.97;;
18194;SDS011;9223;50.988;3.162;2023-03-01T18:44:12;10.75;;;9.00;;
18194;SDS011;9223;50.988;3.162;2023-03-01T18:50:15;10.57;;;8.18;;
18194;SDS011;9223;50.988;3.162;2023-03-01T18:56:18;11.20;;;8.70;;
18194;SDS011;9223;50.988;3.162;2023-03-01T19:02:23;11.90;;;8.20;;
18194;SDS011;9223;50.988;3.162;2023-03-01T19:08:27;11.60;;;8.30;;
18194;SDS011;9223;50.988;3.162;2023-03-01T19:14:31;11.85;;;9.10;;
18194;SDS011;9223;50.988;3.162;2023-03-01T19:20:36;12.75;;;8.68;;
18194;SDS011;9223;50.988;3.162;2023-03-01T19:26:40;11.00;;;9.05;;
18194;SDS011;9223;50.988;3.162;2023-03-01T19:32:44;10.98;;;8.27;;
18194;SDS011;9223;50.988;3.162;2023-03-01T19:38:49;11.15;;;7.95;;
18194;SDS011;9223;50.988;3.162;2023-03-01T19:44:53;12.05;;;7.68;;
18194;SDS011;9223;50.988;3.162;2023-03-01T19:50:56;11.77;;;8.63;;
18194;SDS011;9223;50.988;3.162;2023-03-01T19:57:01;14.73;;;9.25;;
18194;SDS011;9223;50.988;3.162;2023-03-01T20:03:05;18.73;;;12.50;;
18194;SDS011;9223;50.988;3.162;2023-03-01T20:09:08;20.63;;;12.93;;
18194;SDS011;9223;50.988;3.162;2023-03-01T20:15:23;31.33;;;19.35;;
18194;SDS011;9223;50.988;3.162;2023-03-01T20:21:27;21.55;;;15.10;;
18194;SDS011;9223;50.988;3.162;2023-03-01T20:27:30;35.60;;;25.03;;
18194;SDS011;9223;50.988;3.162;2023-03-01T20:33:35;18.92;;;13.15;;
18194;SDS011;9223;50.988;3.162;2023-03-01T20:39:38;17.33;;;12.95;;
18194;SDS011;9223;50.988;3.162;2023-03-01T20:45:42;15.20;;;10.93;;
18194;SDS011;9223;50.988;3.162;2023-03-01T20:51:47;16.55;;;10.82;;
18194;SDS011;9223;50.988;3.162;2023-03-01T20:57:50;12.10;;;8.95;;
18194;SDS011;9223;50.988;3.162;2023-03-01T21:03:54;14.75;;;9.85;;
18194;SDS011;9223;50.988;3.162;2023-03-01T21:09:59;14.65;;;9.95;;
18194;SDS011;9223;50.988;3.162;2023-03-01T21:16:03;13.73;;;11.75;;
18194;SDS011;9223;50.988;3.162;2023-03-01T21:22:08;12.63;;;9.20;;
18194;SDS011;9223;50.988;3.162;2023-03-01T21:28:13;12.17;;;10.50;;
18194;SDS011;9223;50.988;3.162;2023-03-01T21:34:16;11.60;;;9.27;;
18194;SDS011;9223;50.988;3.162;2023-03-01T21:40:20;13.07;;;9.25;;
18194;SDS011;9223;50.988;3.162;2023-03-01T21:46:25;13.95;;;9.55;;
18194;SDS011;9223;50.988;3.162;2023-03-01T21:52:31;11.57;;;8.50;;
18194;SDS011;9223;50.988;3.162;2023-03-01T21:58:36;14.07;;;11.60;;
18194;SDS011;9223;50.988;3.162;2023-03-01T22:04:43;13.25;;;9.93;;
18194;SDS011;9223;50.988;3.162;2023-03-01T22:10:46;14.35;;;9.63;;
18194;SDS011;9223;50.988;3.162;2023-03-01T22:16:50;17.15;;;10.50;;
18194;SDS011;9223;50.988;3.162;2023-03-01T22:22:55;15.63;;;9.90;;
18194;SDS011;9223;50.988;3.162;2023-03-01T22:28:59;14.48;;;9.40;;
18194;SDS011;9223;50.988;3.162;2023-03-01T22:35:03;14.77;;;8.85;;
18194;SDS011;9223;50.988;3.162;2023-03-01T22:41:08;13.15;;;9.35;;
18194;SDS011;9223;50.988;3.162;2023-03-01T22:47:12;14.35;;;11.15;;
18194;SDS011;9223;50.988;3.162;2023-03-01T22:53:16;12.70;;;9.43;;
18194;SDS011;9223;50.988;3.162;2023-03-01T22:59:21;11.73;;;8.15;;
18194;SDS011;9223;50.988;3.162;2023-03-01T23:05:24;13.70;;;8.35;;
18194;SDS011;9223;50.988;3.162;2023-03-01T23:11:28;10.38;;;8.48;;
18194;SDS011;9223;50.988;3.162;2023-03-01T23:17:33;13.13;;;8.52;;
18194;SDS011;9223;50.988;3.162;2023-03-01T23:23:36;12.65;;;8.23;;
18194;SDS011;9223;50.988;3.162;2023-03-01T23:29:40;12.05;;;8.63;;
18194;SDS011;9223;50.988;3.162;2023-03-01T23:35:45;11.55;;;8.15;;
18194;SDS011;9223;50.988;3.162;2023-03-01T23:41:50;11.65;;;8.10;;
18194;SDS011;9223;50.988;3.162;2023-03-01T23:47:53;13.50;;;8.43;;
18194;SDS011;9223;50.988;3.162;2023-03-01T23:53:59;10.88;;;7.70;;
